Hlavní strana
METAR-TAF:

METAR-TAF

Letiště :

Mezinárodní letiště Káhira

Káhira, Egypt

zeměpisná šířka: 30-08N, zeměpisná délka: 031-24E, výška: 64 m

Aktuální stav počasí

Zpráva byla vytvořena před 30 minutami, v 15:30 UTC
Severoseverozápadní vítr 7 kt
Teplota 27°C
Vlhkost vzduchu 45%
Tlak 1016 hPa
Viditelnost 10 km a více
Skoro jasno ve výšce 2500 ft

METAR: HECA 151530Z 34007KT 9999 FEW025 27/14 Q1016 NOSIG

Čas: 18:00 (16:00 UTC)

Předpověď počasí

Zpráva byla vytvořena před 5 hodinami a 0 minutami, v 11:00 UTC
Předpověď platná od 15 v 12 UTC do 16 v 18 UTC
Severní vítr 8 kt
Viditelnost 10 km a více
Polojasno ve výšce 2500 ft

TAF: HECA 151100Z 1512/1618 36008KT 9999 SCT025

Stav a předpovědi počasí z více než 4 000 letišť (zprávy METAR a TAF).

Červené a žluté tečky na mapě představují dostupné meteorologické stanice.

Když kurzor umístíte na tečku, zobrazí se název stanice.

Pak kliknutím zobrazíte stav a předpověď počasí.

Chcete-li změnit mapu, kliknutím na zelené tlačítko se znaménkem +mapu přiblížíte, kliknutím na zelené tlačítko se znaménkem – mapu oddálíte a kliknutím na zelené šipky přejdete na sousední mapy.


METAR-TAF: